Time;durP1;ratioP1;P1;durP2;ratioP2;P2;SDS_P1;SDS_P2;PMS_P1;PMS_P2;Temp;Humidity;BMP_temperature;BMP_pressure;BME280_temperature;BME280_humidity;BME280_pressure;Samples;Min_cycle;Max_cycle;Signal;HPM_P1;HPM_P2
2021/04/15 00:01:32;;;;;;;9.10;4.90;;;4.30;83.00;;;;;;5029567;28;20024;-67
2021/04/15 00:03:58;;;;;;;10.00;4.97;;;4.30;82.70;;;;;;5025891;28;20053;-68
2021/04/15 00:06:28;;;;;;;13.15;5.93;;;4.30;82.60;;;;;;5024759;28;20509;-68
2021/04/15 00:08:56;;;;;;;9.85;5.68;;;4.30;83.00;;;;;;5031706;28;20391;-68
2021/04/15 00:11:26;;;;;;;10.90;5.45;;;4.20;82.50;;;;;;5012256;28;20029;-68
2021/04/15 00:13:55;;;;;;;8.10;4.57;;;4.20;83.20;;;;;;5030323;28;20053;-68
2021/04/15 00:16:22;;;;;;;9.98;4.90;;;4.20;82.60;;;;;;5027799;28;20510;-68
2021/04/15 00:18:49;;;;;;;13.55;5.10;;;4.20;82.50;;;;;;5028294;28;20429;-68
2021/04/15 00:21:16;;;;;;;8.95;5.32;;;4.20;82.70;;;;;;5026835;28;20025;-69
2021/04/15 00:23:42;;;;;;;10.40;4.65;;;4.20;82.50;;;;;;5028792;28;20026;-68
2021/04/15 00:26:10;;;;;;;7.43;5.10;;;4.20;82.60;;;;;;5023925;28;20030;-68
2021/04/15 00:28:36;;;;;;;12.38;5.45;;;4.20;82.40;;;;;;4996089;28;20029;-69
2021/04/15 00:31:05;;;;;;;8.50;4.60;;;4.20;82.80;;;;;;5027748;28;20036;-68
2021/04/15 00:33:32;;;;;;;9.45;4.75;;;4.20;82.40;;;;;;5027664;28;20040;-68
2021/04/15 00:35:57;;;;;;;9.98;4.82;;;4.20;82.70;;;;;;5024158;28;20049;-68
2021/04/15 00:38:25;;;;;;;6.22;4.05;;;4.20;82.60;;;;;;5027712;28;20375;-67
2021/04/15 00:40:53;;;;;;;9.73;4.90;;;4.10;82.50;;;;;;5031058;28;20040;-70
2021/04/15 00:43:20;;;;;;;9.02;4.70;;;4.10;82.40;;;;;;5027109;28;20029;-67
2021/04/15 00:45:47;;;;;;;8.07;4.63;;;4.10;82.10;;;;;;5027671;28;20028;-68
2021/04/15 00:48:22;;;;;;;9.70;5.40;;;4.10;82.40;;;;;;5027026;28;20072;-68
2021/04/15 00:50:58;;;;;;;7.65;4.32;;;4.10;82.30;;;;;;5030432;28;20037;-68
2021/04/15 00:53:39;;;;;;;9.25;4.90;;;4.10;82.50;;;;;;5028215;28;20037;-68
2021/04/15 00:56:05;;;;;;;8.20;4.57;;;4.10;82.60;;;;;;5025311;28;20033;-68
2021/04/15 00:58:32;;;;;;;7.97;4.00;;;4.10;82.30;;;;;;5020653;28;20040;-68
2021/04/15 01:00:58;;;;;;;10.98;5.38;;;4.10;82.40;;;;;;5021144;28;20040;-68
2021/04/15 01:03:24;;;;;;;7.95;5.03;;;4.00;82.60;;;;;;5027533;28;20113;-68
2021/04/15 01:05:50;;;;;;;9.57;4.93;;;4.00;82.40;;;;;;5028204;28;20585;-68
2021/04/15 01:08:17;;;;;;;6.30;4.47;;;4.00;82.20;;;;;;5026730;28;20080;-67
2021/04/15 01:10:47;;;;;;;9.43;4.55;;;4.00;82.30;;;;;;5028217;28;20596;-68
2021/04/15 01:13:51;;;;;;;8.03;4.87;;;4.00;82.80;;;;;;5025071;28;20041;-68
2021/04/15 01:16:35;;;;;;;9.20;3.90;;;4.00;82.40;;;;;;5029740;28;20292;-69
2021/04/15 01:19:25;;;;;;;8.48;4.47;;;3.90;82.20;;;;;;5028173;28;20038;-68
2021/04/15 01:22:09;;;;;;;6.85;4.18;;;4.00;82.60;;;;;;5027129;28;20017;-68
2021/04/15 01:24:42;;;;;;;10.43;5.07;;;4.00;82.30;;;;;;5023707;28;20091;-68
2021/04/15 01:27:36;;;;;;;7.63;4.10;;;4.00;82.40;;;;;;5025134;28;20113;-68
2021/04/15 01:30:29;;;;;;;7.95;4.50;;;3.90;82.30;;;;;;5027114;28;20091;-68
2021/04/15 01:33:09;;;;;;;7.55;4.50;;;3.90;82.10;;;;;;5028051;28;20490;-68
2021/04/15 01:35:46;;;;;;;9.77;4.55;;;3.90;82.40;;;;;;5027524;28;20646;-68
2021/04/15 01:38:40;;;;;;;8.15;4.70;;;3.90;82.40;;;;;;5021445;28;20029;-69
2021/04/15 01:41:19;;;;;;;9.70;4.20;;;3.90;82.50;;;;;;5025281;28;20037;-68
2021/04/15 01:43:57;;;;;;;9.45;4.22;;;3.90;82.50;;;;;;5021027;28;20032;-68
2021/04/15 01:46:27;;;;;;;6.90;3.78;;;3.80;82.50;;;;;;5008465;28;20021;-68
2021/04/15 01:48:54;;;;;;;7.38;4.13;;;3.80;82.50;;;;;;5028036;28;20069;-68
2021/04/15 01:51:35;;;;;;;7.18;4.30;;;3.80;82.40;;;;;;5028547;28;20021;-67
2021/04/15 01:54:19;;;;;;;8.57;4.38;;;3.80;82.60;;;;;;5023071;28;20033;-67
2021/04/15 01:56:50;;;;;;;10.95;4.97;;;3.80;82.40;;;;;;5023529;28;20810;-68
2021/04/15 01:59:40;;;;;;;7.38;4.38;;;3.80;82.90;;;;;;5026473;28;20030;-67
2021/04/15 02:02:22;;;;;;;9.00;4.32;;;3.80;82.50;;;;;;5025118;28;20034;-69
2021/04/15 02:05:14;;;;;;;9.75;4.68;;;3.80;82.80;;;;;;5024998;28;20034;-68
2021/04/15 02:07:46;;;;;;;11.27;4.75;;;3.70;82.80;;;;;;5029186;28;20038;-67
2021/04/15 02:10:14;;;;;;;9.13;4.55;;;3.70;82.70;;;;;;5027767;28;20033;-69
2021/04/15 02:12:45;;;;;;;10.02;4.35;;;3.70;82.80;;;;;;5030128;28;20637;-70
2021/04/15 02:15:31;;;;;;;10.45;4.57;;;3.70;82.50;;;;;;5011678;28;20075;-69
2021/04/15 02:18:08;;;;;;;10.07;4.60;;;3.70;82.70;;;;;;5028049;28;20065;-69
2021/04/15 02:20:34;;;;;;;11.88;5.65;;;3.70;82.50;;;;;;5027207;28;20087;-69
2021/04/15 02:23:04;;;;;;;9.52;4.53;;;3.70;82.70;;;;;;5030968;28;20037;-69
2021/04/15 02:25:42;;;;;;;8.90;4.88;;;3.70;83.00;;;;;;5030655;28;20029;-69
2021/04/15 02:28:12;;;;;;;12.38;4.68;;;3.70;82.40;;;;;;5010168;28;20045;-69
2021/04/15 02:30:43;;;;;;;8.25;4.60;;;3.70;82.60;;;;;;5027423;28;20043;-69
2021/04/15 02:33:34;;;;;;;10.18;4.60;;;3.60;82.60;;;;;;5026425;28;20049;-69
2021/04/15 02:36:02;;;;;;;10.20;5.05;;;3.60;82.60;;;;;;5028801;28;20056;-69
2021/04/15 02:38:50;;;;;;;11.20;4.68;;;3.60;82.80;;;;;;5028407;28;20025;-70
2021/04/15 02:41:23;;;;;;;10.15;4.80;;;3.60;82.70;;;;;;5031533;28;20144;-69
2021/04/15 02:43:55;;;;;;;10.13;4.65;;;3.60;82.50;;;;;;5030969;28;20060;-69
2021/04/15 02:46:31;;;;;;;9.93;4.95;;;3.60;82.50;;;;;;5025936;28;20021;-69
2021/04/15 02:49:01;;;;;;;9.73;4.88;;;3.50;82.70;;;;;;5030134;28;20116;-69
2021/04/15 02:51:43;;;;;;;9.20;5.10;;;3.50;82.40;;;;;;5028176;28;20053;-69
2021/04/15 02:54:41;;;;;;;7.88;4.75;;;3.50;82.80;;;;;;5029197;28;20067;-68
2021/04/15 02:57:09;;;;;;;8.48;4.35;;;3.50;82.80;;;;;;5022560;28;20041;-69
2021/04/15 02:59:45;;;;;;;9.73;4.60;;;3.50;82.50;;;;;;5029008;28;20029;-69
2021/04/15 03:02:18;;;;;;;10.07;5.25;;;3.50;82.60;;;;;;5027236;28;20075;-70
2021/04/15 03:04:51;;;;;;;11.82;4.95;;;3.50;82.70;;;;;;5028146;28;20554;-69
2021/04/15 03:07:18;;;;;;;9.23;4.65;;;3.50;82.50;;;;;;5025725;28;20083;-69
2021/04/15 03:09:44;;;;;;;10.25;4.72;;;3.50;82.80;;;;;;5027114;28;20422;-69
2021/04/15 03:12:19;;;;;;;10.00;5.13;;;3.50;82.70;;;;;;5027660;28;20034;-69
2021/04/15 03:14:52;;;;;;;11.07;4.80;;;3.50;82.60;;;;;;5029829;28;20390;-69
2021/04/15 03:17:22;;;;;;;9.35;4.63;;;3.50;82.50;;;;;;5029238;28;20030;-69
2021/04/15 03:19:52;;;;;;;9.20;4.60;;;3.50;82.40;;;;;;5027733;28;20033;-69
2021/04/15 03:22:39;;;;;;;9.43;4.57;;;3.40;82.40;;;;;;5029322;28;20022;-69
2021/04/15 03:25:06;;;;;;;8.63;4.53;;;3.40;82.50;;;;;;5028842;28;20063;-69
2021/04/15 03:28:01;;;;;;;9.82;4.90;;;3.40;82.60;;;;;;5026547;28;20040;-69
2021/04/15 03:30:40;;;;;;;9.93;5.25;;;3.40;82.40;;;;;;5030738;28;20029;-69
2021/04/15 03:33:33;;;;;;;9.27;5.30;;;3.40;81.80;;;;;;5028820;28;20059;-69
2021/04/15 03:36:18;;;;;;;9.60;5.32;;;3.30;82.40;;;;;;5027420;28;20100;-69
2021/04/15 03:38:54;;;;;;;8.93;4.25;;;3.30;82.40;;;;;;5024766;28;20671;-69
2021/04/15 03:41:46;;;;;;;8.52;4.57;;;3.30;82.40;;;;;;5027213;28;20106;-69
2021/04/15 03:44:38;;;;;;;10.95;4.47;;;3.30;82.50;;;;;;5021050;28;20041;-70
2021/04/15 03:47:29;;;;;;;9.45;4.38;;;3.30;82.50;;;;;;5027839;28;20040;-69
2021/04/15 03:50:01;;;;;;;8.00;4.63;;;3.30;82.40;;;;;;5027231;28;20095;-69
2021/04/15 03:52:43;;;;;;;12.75;5.28;;;3.30;82.30;;;;;;5025674;28;20029;-69
2021/04/15 03:55:46;;;;;;;6.93;4.35;;;3.20;82.60;;;;;;5010066;28;20128;-68
2021/04/15 03:58:26;;;;;;;9.75;5.20;;;3.20;82.60;;;;;;4987206;28;20052;-69
2021/04/15 04:01:00;;;;;;;7.47;4.20;;;3.20;83.00;;;;;;5028357;28;20045;-69
2021/04/15 04:03:28;;;;;;;9.18;4.63;;;3.20;82.80;;;;;;5023003;28;20037;-69
2021/04/15 04:06:20;;;;;;;7.63;4.70;;;3.20;82.90;;;;;;5030401;28;20136;-69
2021/04/15 04:08:51;;;;;;;9.98;5.43;;;3.20;82.80;;;;;;5029216;28;20123;-69
2021/04/15 04:11:20;;;;;;;10.52;5.22;;;3.20;83.40;;;;;;5028547;28;20433;-69
2021/04/15 04:14:02;;;;;;;13.60;5.55;;;3.20;83.50;;;;;;5028745;28;20032;-69
2021/04/15 04:16:50;;;;;;;9.15;4.75;;;3.20;82.70;;;;;;5025173;28;20025;-69
2021/04/15 04:19:42;;;;;;;10.38;5.63;;;3.10;83.20;;;;;;5029432;28;20048;-69
2021/04/15 04:22:17;;;;;;;;;;;3.10;83.10;;;;;;5029470;28;20030;-69
2021/04/15 04:25:11;;;;;;;8.40;5.10;;;3.10;83.20;;;;;;5029369;28;19909;-69
2021/04/15 04:27:44;;;;;;;9.80;5.60;;;3.10;83.30;;;;;;5023653;28;20048;-69
2021/04/15 04:30:13;;;;;;;7.95;5.43;;;3.10;83.40;;;;;;5022058;28;20061;-69
2021/04/15 04:32:40;;;;;;;9.18;5.53;;;3.10;83.40;;;;;;5022164;28;21032;-69
2021/04/15 04:35:09;;;;;;;9.32;5.65;;;3.10;83.30;;;;;;5024309;28;20037;-69
2021/04/15 04:37:41;;;;;;;8.98;5.30;;;3.10;83.40;;;;;;5021928;28;20439;-69
2021/04/15 04:40:13;;;;;;;8.48;5.25;;;3.10;83.40;;;;;;5025711;28;20108;-69
2021/04/15 04:43:11;;;;;;;10.30;5.88;;;3.10;83.30;;;;;;5023076;28;20557;-69
2021/04/15 04:45:38;;;;;;;10.80;5.43;;;3.10;83.30;;;;;;4989813;28;20411;-69
2021/04/15 04:48:05;;;;;;;9.85;6.03;;;3.10;83.40;;;;;;5021708;28;20063;-66
2021/04/15 04:50:44;;;;;;;12.50;5.82;;;3.00;83.40;;;;;;5025132;28;20095;-68
2021/04/15 04:53:29;;;;;;;9.30;5.30;;;3.00;83.90;;;;;;5021570;28;20104;-68
2021/04/15 04:56:33;;;;;;;8.75;4.80;;;3.00;83.70;;;;;;5020918;28;20029;-67
2021/04/15 04:59:05;;;;;;;8.95;5.82;;;3.00;83.60;;;;;;5000817;28;20495;-68
2021/04/15 05:01:31;;;;;;;11.82;6.13;;;3.00;83.60;;;;;;5021485;28;20025;-67
2021/04/15 05:04:01;;;;;;;8.10;5.20;;;3.00;83.70;;;;;;5022757;28;20597;-68
2021/04/15 05:06:37;;;;;;;9.98;5.78;;;3.00;83.80;;;;;;5020624;28;20057;-69
2021/04/15 05:09:32;;;;;;;9.07;5.60;;;3.00;83.50;;;;;;5020026;28;20029;-68
2021/04/15 05:12:00;;;;;;;13.18;5.40;;;3.00;83.60;;;;;;5021939;28;20595;-67
2021/04/15 05:14:29;;;;;;;13.00;6.03;;;3.00;83.60;;;;;;5024102;28;20123;-69
2021/04/15 05:17:03;;;;;;;10.02;5.20;;;3.00;83.70;;;;;;5015462;28;20533;-68
2021/04/15 05:19:32;;;;;;;9.13;5.10;;;3.00;83.70;;;;;;5022494;28;20460;-69
2021/04/15 05:22:00;;;;;;;9.40;5.65;;;3.00;83.60;;;;;;5018719;28;20670;-69
2021/04/15 05:24:42;;;;;;;9.05;4.95;;;3.00;83.50;;;;;;5020229;28;20030;-68
2021/04/15 05:27:12;;;;;;;14.05;5.80;;;3.00;83.60;;;;;;5020760;28;20475;-68
2021/04/15 05:29:42;;;;;;;10.43;5.13;;;3.00;83.40;;;;;;5025094;28;20037;-68
2021/04/15 05:32:12;;;;;;;9.38;5.05;;;3.00;83.50;;;;;;5020361;28;20033;-68
2021/04/15 05:34:49;;;;;;;9.00;5.32;;;3.10;83.50;;;;;;5005154;28;20032;-68
2021/04/15 05:37:19;;;;;;;9.02;5.43;;;3.10;83.40;;;;;;5022064;28;20023;-68
2021/04/15 05:39:46;;;;;;;12.38;5.68;;;3.10;83.30;;;;;;5003157;28;20060;-68
2021/04/15 05:42:20;;;;;;;11.45;5.18;;;3.10;83.20;;;;;;5027329;28;20025;-69
2021/04/15 05:44:54;;;;;;;10.50;5.10;;;3.10;83.30;;;;;;5031274;28;20021;-68
2021/04/15 05:47:30;;;;;;;9.25;5.07;;;3.10;83.60;;;;;;5030479;28;20061;-69
2021/04/15 05:50:15;;;;;;;12.73;5.43;;;3.10;83.40;;;;;;5031600;28;20072;-69
2021/04/15 05:52:50;;;;;;;11.80;5.10;;;3.10;83.60;;;;;;5034969;28;20037;-69
2021/04/15 05:55:26;;;;;;;10.57;5.88;;;3.20;83.60;;;;;;5036506;28;20410;-68
2021/04/15 05:57:58;;;;;;;10.18;5.10;;;3.20;83.70;;;;;;5027105;28;20570;-68
2021/04/15 06:00:40;;;;;;;11.15;5.68;;;3.20;83.80;;;;;;5013171;28;20129;-68
2021/04/15 06:03:26;;;;;;;10.85;4.85;;;3.20;83.70;;;;;;5051394;22;20123;-68
2021/04/15 06:06:11;;;;;;;9.93;6.05;;;3.30;83.80;;;;;;5026904;28;20021;-68
2021/04/15 06:08:41;;;;;;;9.38;5.68;;;3.30;83.90;;;;;;5009358;28;20096;-68
2021/04/15 06:11:31;;;;;;;13.77;5.95;;;3.30;84.20;;;;;;5024579;28;20029;-67
2021/04/15 06:14:03;;;;;;;12.40;5.60;;;3.40;84.30;;;;;;5024856;28;20467;-68
2021/04/15 06:16:38;;;;;;;10.95;6.15;;;3.40;84.20;;;;;;5022487;28;20038;-68
2021/04/15 06:19:17;;;;;;;11.23;5.95;;;3.50;84.30;;;;;;5027970;28;20045;-68
2021/04/15 06:21:46;;;;;;;11.45;6.70;;;3.50;84.40;;;;;;5026232;28;20026;-68
2021/04/15 06:24:17;;;;;;;9.40;5.57;;;3.60;84.80;;;;;;5026292;28;20030;-68
2021/04/15 06:26:50;;;;;;;8.93;4.68;;;3.60;84.50;;;;;;5029337;28;20026;-68
2021/04/15 06:29:20;;;;;;;11.93;5.55;;;3.70;84.50;;;;;;5008725;28;20037;-67
2021/04/15 06:31:51;;;;;;;12.27;5.60;;;3.70;84.60;;;;;;5017452;28;20060;-68
2021/04/15 06:34:18;;;;;;;10.40;5.72;;;3.70;85.20;;;;;;5034948;28;20080;-68
2021/04/15 06:37:13;;;;;;;10.90;5.45;;;3.80;84.80;;;;;;5031123;28;20032;-68
2021/04/15 06:39:42;;;;;;;8.20;5.25;;;3.80;84.70;;;;;;5024547;28;20661;-69
2021/04/15 06:42:22;;;;;;;8.82;5.88;;;3.90;84.90;;;;;;5033334;28;20022;-70
2021/04/15 06:45:06;;;;;;;14.70;5.78;;;3.90;85.00;;;;;;5030149;28;20477;-70
2021/04/15 06:48:09;;;;;;;8.77;5.35;;;4.00;85.10;;;;;;5034789;28;20145;-69
2021/04/15 06:51:06;;;;;;;10.45;5.45;;;4.10;85.20;;;;;;5033861;28;20079;-70
2021/04/15 06:53:42;;;;;;;11.70;5.45;;;4.20;85.50;;;;;;5032201;28;20087;-70
2021/04/15 06:56:35;;;;;;;8.07;4.63;;;4.20;85.60;;;;;;5029549;28;20678;-70
2021/04/15 06:59:22;;;;;;;8.60;5.22;;;4.20;85.90;;;;;;5032136;28;20029;-69
2021/04/15 07:02:06;;;;;;;11.43;6.00;;;4.30;86.30;;;;;;5030054;28;20053;-67
2021/04/15 07:04:58;;;;;;;11.77;4.70;;;4.40;86.40;;;;;;5029404;28;20036;-67
2021/04/15 07:07:31;;;;;;;9.45;4.70;;;4.50;86.30;;;;;;5031019;28;20116;-68
2021/04/15 07:10:18;;;;;;;7.80;5.10;;;4.50;86.10;;;;;;5033189;28;20045;-68
2021/04/15 07:13:17;;;;;;;10.95;5.13;;;4.50;86.70;;;;;;5027205;28;20063;-68
2021/04/15 07:15:46;;;;;;;8.38;4.53;;;4.60;86.60;;;;;;5035605;28;20048;-68
2021/04/15 07:18:48;;;;;;;12.32;4.88;;;4.70;86.20;;;;;;5012245;28;20060;-68
2021/04/15 07:21:13;;;;;;;12.52;5.00;;;4.80;86.50;;;;;;5030808;28;20092;-68
2021/04/15 07:24:01;;;;;;;11.02;5.18;;;4.80;86.70;;;;;;5031640;28;20105;-68
2021/04/15 07:26:59;;;;;;;10.07;4.95;;;4.80;86.70;;;;;;5012531;28;20422;-69
2021/04/15 07:30:02;;;;;;;9.32;5.07;;;5.00;86.70;;;;;;5031367;28;20030;-68
2021/04/15 07:32:48;;;;;;;9.40;5.32;;;5.00;86.70;;;;;;5027712;28;20486;-67
2021/04/15 07:35:23;;;;;;;8.32;4.55;;;5.10;86.70;;;;;;5029463;28;20021;-67
2021/04/15 07:37:52;;;;;;;9.52;4.35;;;5.20;86.50;;;;;;5028669;28;20021;-68
2021/04/15 07:40:18;;;;;;;8.43;4.53;;;5.20;86.00;;;;;;5034885;28;20025;-68
2021/04/15 07:43:21;;;;;;;8.68;4.72;;;5.40;85.70;;;;;;5034400;28;20029;-68
2021/04/15 07:45:49;;;;;;;9.25;4.63;;;5.50;85.60;;;;;;5027480;28;20423;-69
2021/04/15 07:48:37;;;;;;;7.95;3.90;;;5.50;85.30;;;;;;5028718;28;20034;-68
2021/04/15 07:51:18;;;;;;;6.43;3.63;;;5.50;84.90;;;;;;5023315;28;20678;-68
2021/04/15 07:54:16;;;;;;;7.55;3.78;;;5.50;85.20;;;;;;5016995;28;20029;-69
2021/04/15 07:57:27;;;;;;;6.47;3.85;;;5.60;85.00;;;;;;5026644;28;20441;-68
2021/04/15 08:00:30;;;;;;;10.10;3.67;;;5.60;84.90;;;;;;5023376;28;20049;-70
2021/04/15 08:03:34;;;;;;;4.70;2.90;;;5.70;84.40;;;;;;5027325;28;20034;-69
2021/04/15 08:06:12;;;;;;;4.78;2.40;;;5.90;81.90;;;;;;5027337;28;20069;-68
2021/04/15 08:09:16;;;;;;;3.63;1.77;;;5.90;81.00;;;;;;5026065;28;20037;-69
2021/04/15 08:12:10;;;;;;;7.35;2.20;;;6.00;79.10;;;;;;5030373;28;20053;-69
2021/04/15 08:14:54;;;;;;;5.65;2.17;;;6.10;78.10;;;;;;5025403;28;20057;-69
2021/04/15 08:17:32;;;;;;;3.97;2.00;;;6.20;78.10;;;;;;5026598;28;20537;-69
2021/04/15 08:20:23;;;;;;;3.92;2.33;;;6.20;78.70;;;;;;5026160;28;20064;-70
2021/04/15 08:23:15;;;;;;;6.63;1.90;;;6.30;78.80;;;;;;5028097;28;20495;-70
2021/04/15 08:25:44;;;;;;;5.05;2.10;;;6.30;78.20;;;;;;5028668;28;20033;-70
2021/04/15 08:28:54;;;;;;;3.47;1.60;;;6.30;77.90;;;;;;5027791;28;20025;-69
2021/04/15 08:31:48;;;;;;;5.72;1.75;;;6.40;78.10;;;;;;5028195;28;20048;-70
2021/04/15 08:34:19;;;;;;;4.55;1.50;;;6.50;75.80;;;;;;5011655;28;20087;-70
2021/04/15 08:36:51;;;;;;;3.30;1.35;;;6.50;75.10;;;;;;5026723;28;20128;-70
2021/04/15 08:39:46;;;;;;;3.10;1.30;;;6.50;73.50;;;;;;5011923;28;20087;-70
2021/04/15 08:42:38;;;;;;;2.72;1.08;;;6.70;71.10;;;;;;5003886;28;20471;-70
2021/04/15 08:45:22;;;;;;;4.07;1.27;;;6.70;70.10;;;;;;5023943;28;20205;-68
2021/04/15 08:48:19;;;;;;;5.63;1.30;;;6.70;70.40;;;;;;5010019;28;20495;-69
2021/04/15 08:51:09;;;;;;;7.35;1.60;;;6.80;70.40;;;;;;5027833;28;20048;-69
2021/04/15 08:53:46;;;;;;;4.60;1.38;;;6.90;70.50;;;;;;5028504;28;20037;-69
2021/04/15 08:56:26;;;;;;;3.78;1.60;;;6.90;69.80;;;;;;5028711;28;20391;-69
2021/04/15 08:59:19;;;;;;;2.50;1.45;;;6.90;69.70;;;;;;5027589;28;20555;-70
2021/04/15 09:02:20;;;;;;;2.05;1.08;;;7.00;67.70;;;;;;5027725;28;20029;-70
2021/04/15 09:05:35;;;;;;;4.23;1.13;;;7.10;65.70;;;;;;5025194;28;20056;-69
2021/04/15 09:08:27;;;;;;;2.28;1.08;;;7.20;64.70;;;;;;4996938;28;20358;-69
2021/04/15 09:11:14;;;;;;;3.63;0.75;;;7.30;63.90;;;;;;5028110;28;20037;-69
2021/04/15 09:14:00;;;;;;;1.30;0.70;;;7.40;61.80;;;;;;5011366;28;20036;-69
2021/04/15 09:16:45;;;;;;;2.40;0.75;;;7.40;60.50;;;;;;5026926;28;20029;-69
2021/04/15 09:19:36;;;;;;;1.17;0.65;;;7.50;56.10;;;;;;5028896;28;20270;-69
2021/04/15 09:22:32;;;;;;;1.52;0.90;;;7.50;54.90;;;;;;5026474;28;20467;-69
2021/04/15 09:25:08;;;;;;;1.50;0.95;;;7.60;56.10;;;;;;5026762;28;20037;-69
2021/04/15 09:27:58;;;;;;;2.40;0.63;;;7.80;53.30;;;;;;5027264;28;20052;-69
2021/04/15 09:30:49;;;;;;;1.33;0.90;;;7.80;55.30;;;;;;5027450;28;20124;-70
2021/04/15 09:33:40;;;;;;;1.38;0.80;;;7.80;55.60;;;;;;5027563;28;20030;-70
2021/04/15 09:36:07;;;;;;;1.38;0.80;;;7.80;56.80;;;;;;5025975;28;20512;-70
2021/04/15 09:38:55;;;;;;;3.03;0.90;;;7.90;51.70;;;;;;5025352;28;20037;-70
2021/04/15 09:41:50;;;;;;;1.23;0.60;;;8.10;52.20;;;;;;5009647;28;20021;-69
2021/04/15 09:44:37;;;;;;;1.75;0.77;;;8.20;49.70;;;;;;5028085;28;20053;-69
2021/04/15 09:47:28;;;;;;;1.58;0.60;;;8.40;49.80;;;;;;5027741;28;20438;-70
2021/04/15 09:50:10;;;;;;;1.52;0.85;;;8.40;50.30;;;;;;5027773;28;20398;-69
2021/04/15 09:53:14;;;;;;;1.42;0.73;;;8.30;51.50;;;;;;5020755;28;20605;-69
2021/04/15 09:55:58;;;;;;;2.35;0.75;;;8.30;50.80;;;;;;5022957;28;20492;-69
2021/04/15 09:58:51;;;;;;;4.78;1.05;;;8.30;51.70;;;;;;5031077;28;20034;-68
2021/04/15 10:01:23;;;;;;;3.08;1.02;;;8.50;50.70;;;;;;5034739;28;20098;-68
2021/04/15 10:04:18;;;;;;;2.60;1.20;;;8.60;51.10;;;;;;5027993;28;20034;-68
2021/04/15 10:07:10;;;;;;;2.33;0.70;;;8.60;49.10;;;;;;5024798;28;20021;-67
2021/04/15 10:09:40;;;;;;;0.93;0.50;;;8.60;47.30;;;;;;5022305;28;20728;-67
2021/04/15 10:12:29;;;;;;;1.43;0.60;;;8.50;47.80;;;;;;5024280;28;20064;-68
2021/04/15 10:15:15;;;;;;;2.17;0.65;;;8.40;46.10;;;;;;5024750;28;20029;-68
2021/04/15 10:18:08;;;;;;;1.95;0.70;;;8.50;46.10;;;;;;5027423;28;20032;-68
2021/04/15 10:21:00;;;;;;;1.55;0.80;;;8.50;46.50;;;;;;5023825;28;20109;-68
2021/04/15 10:23:48;;;;;;;1.83;0.70;;;8.50;47.40;;;;;;5027824;28;20051;-68
2021/04/15 10:26:32;;;;;;;2.22;0.63;;;8.60;47.30;;;;;;5023778;28;20036;-69
2021/04/15 10:29:32;;;;;;;0.95;0.55;;;8.80;47.80;;;;;;5029965;28;20030;-69
2021/04/15 10:32:19;;;;;;;0.70;0.60;;;8.90;48.70;;;;;;4990760;28;20866;-69
2021/04/15 10:35:23;;;;;;;1.98;0.70;;;9.00;49.10;;;;;;5031676;28;20399;-70
2021/04/15 10:38:34;;;;;;;2.33;0.90;;;9.00;50.40;;;;;;5000422;28;20041;-69
2021/04/15 10:41:06;;;;;;;2.28;0.85;;;8.90;51.10;;;;;;5031617;28;20052;-69
2021/04/15 10:43:50;;;;;;;1.77;0.82;;;8.90;49.40;;;;;;5028350;28;20017;-69
2021/04/15 10:46:21;;;;;;;3.60;1.45;;;8.80;50.30;;;;;;5030954;28;20033;-70
2021/04/15 10:49:32;;;;;;;2.30;1.20;;;8.70;52.30;;;;;;5031480;28;20112;-69
2021/04/15 10:52:13;;;;;;;3.78;1.10;;;8.70;53.60;;;;;;5025139;28;20120;-70
2021/04/15 10:54:41;;;;;;;1.67;0.93;;;8.60;53.90;;;;;;5029843;28;20499;-69
2021/04/15 10:57:34;;;;;;;3.80;1.10;;;8.70;53.60;;;;;;5027551;28;20060;-70
2021/04/15 11:00:26;;;;;;;3.83;1.40;;;8.70;53.80;;;;;;5028808;28;20080;-70
2021/04/15 11:03:29;;;;;;;29.13;7.97;;;8.80;56.20;;;;;;5029737;28;20034;-70
2021/04/15 11:05:55;;;;;;;2.10;1.10;;;9.10;56.00;;;;;;4938939;29;20875;-70
2021/04/15 11:08:24;;;;;;;3.10;1.10;;;9.10;52.60;;;;;;5012546;28;20045;-70
2021/04/15 11:10:50;;;;;;;1.88;0.88;;;8.90;52.80;;;;;;5030191;28;20079;-70
2021/04/15 11:13:24;;;;;;;3.20;1.30;;;8.90;54.20;;;;;;5029489;28;20395;-70
2021/04/15 11:15:56;;;;;;;1.58;0.85;;;8.70;49.60;;;;;;5028559;28;20590;-71
2021/04/15 11:18:30;;;;;;;7.03;1.45;;;8.70;50.50;;;;;;5030000;28;20034;-70
2021/04/15 11:21:19;;;;;;;6.80;2.50;;;8.90;50.20;;;;;;5029983;28;20033;-69
2021/04/15 11:23:46;;;;;;;3.03;1.10;;;9.30;51.50;;;;;;5029402;28;20025;-68
2021/04/15 11:26:17;;;;;;;3.95;1.27;;;9.30;49.20;;;;;;5024353;28;20025;-69
2021/04/15 11:28:44;;;;;;;1.40;0.90;;;9.20;46.90;;;;;;5029073;28;20099;-70
2021/04/15 11:31:09;;;;;;;2.40;1.13;;;9.10;49.20;;;;;;5031194;28;20108;-69
2021/04/15 11:33:42;;;;;;;1.73;0.90;;;8.90;49.10;;;;;;5030862;28;20128;-69
2021/04/15 11:36:18;;;;;;;4.03;1.10;;;8.90;49.50;;;;;;5030074;28;20041;-70
2021/04/15 11:38:48;;;;;;;180.02;82.15;;;8.80;49.80;;;;;;5030197;28;20098;-69
2021/04/15 11:41:21;;;;;;;18.45;8.85;;;8.90;49.50;;;;;;5030900;28;20021;-70
2021/04/15 11:43:48;;;;;;;35.45;18.90;;;8.90;46.00;;;;;;5024778;28;20044;-70
2021/04/15 11:46:35;;;;;;;2.60;1.15;;;8.90;46.70;;;;;;5028275;28;20053;-70
2021/04/15 11:49:04;;;;;;;1.60;0.73;;;9.00;45.40;;;;;;5028216;28;20025;-69
2021/04/15 11:51:53;;;;;;;2.58;0.90;;;9.30;45.80;;;;;;5028517;28;20041;-69
2021/04/15 11:54:36;;;;;;;1.92;0.90;;;9.80;44.80;;;;;;5028519;28;20037;-69
2021/04/15 11:57:33;;;;;;;3.17;1.20;;;10.30;42.90;;;;;;5028623;28;20802;-69
2021/04/15 11:59:59;;;;;;;2.00;0.85;;;10.40;43.10;;;;;;5027838;28;20399;-68
2021/04/15 12:02:29;;;;;;;3.85;0.98;;;10.30;44.20;;;;;;5033008;28;20021;-71
2021/04/15 12:05:16;;;;;;;1.75;0.90;;;10.20;43.70;;;;;;5051490;28;20110;-68
2021/04/15 12:07:59;;;;;;;1.77;0.80;;;10.00;43.40;;;;;;5033831;28;20110;-69
2021/04/15 12:10:32;;;;;;;4.53;1.00;;;9.80;44.20;;;;;;5049092;28;20104;-69
2021/04/15 12:13:10;;;;;;;2.40;0.90;;;9.60;44.50;;;;;;5051361;28;20029;-68
2021/04/15 12:15:43;;;;;;;3.10;1.00;;;9.60;43.30;;;;;;5047873;28;20025;-69
2021/04/15 12:18:20;;;;;;;2.85;0.93;;;9.50;43.60;;;;;;5039315;28;20033;-71
2021/04/15 12:20:56;;;;;;;1.95;0.80;;;9.50;43.50;;;;;;5050767;28;20037;-69
2021/04/15 12:23:24;;;;;;;2.53;0.98;;;9.50;43.90;;;;;;5049362;28;20402;-68
2021/04/15 12:25:52;;;;;;;3.78;1.23;;;9.90;48.70;;;;;;5048699;28;20025;-70
2021/04/15 12:28:38;;;;;;;3.35;0.88;;;10.10;42.90;;;;;;5049912;28;20025;-69
2021/04/15 12:31:15;;;;;;;2.25;1.20;;;10.20;43.90;;;;;;5051162;28;20071;-70
2021/04/15 12:34:10;;;;;;;2.08;0.90;;;10.20;41.80;;;;;;5049013;28;20064;-70
2021/04/15 12:36:46;;;;;;;1.55;0.90;;;9.90;43.60;;;;;;5014226;28;20490;-69
2021/04/15 12:39:22;;;;;;;3.70;0.90;;;9.80;43.50;;;;;;5050695;28;20136;-71
2021/04/15 12:41:51;;;;;;;1.17;0.70;;;9.70;43.30;;;;;;5015674;28;20483;-69
2021/04/15 12:44:24;;;;;;;1.20;1.00;;;9.70;41.60;;;;;;5050274;28;20069;-69
2021/04/15 12:46:52;;;;;;;0.85;0.68;;;9.60;40.50;;;;;;5034278;28;20030;-68
2021/04/15 12:49:23;;;;;;;6.47;1.08;;;9.50;40.00;;;;;;5052065;28;20092;-69
2021/04/15 12:52:00;;;;;;;1.38;0.70;;;9.40;41.00;;;;;;5050141;28;20049;-70
2021/04/15 12:54:35;;;;;;;1.95;0.95;;;9.40;39.90;;;;;;5035860;28;20385;-68
2021/04/15 12:57:03;;;;;;;2.35;0.63;;;9.30;39.10;;;;;;5050239;28;20025;-68
2021/04/15 12:59:43;;;;;;;0.82;0.50;;;9.30;39.80;;;;;;5047297;28;20066;-69
2021/04/15 13:02:25;;;;;;;0.93;0.50;;;9.40;39.40;;;;;;5049239;28;20053;-69
2021/04/15 13:05:14;;;;;;;3.03;0.50;;;9.60;37.40;;;;;;5048059;28;20055;-68
2021/04/15 13:07:42;;;;;;;1.20;0.60;;;9.90;36.00;;;;;;5039815;28;20025;-69
2021/04/15 13:10:13;;;;;;;0.65;0.50;;;10.30;36.00;;;;;;5051760;28;20021;-69
2021/04/15 13:12:50;;;;;;;2.38;0.70;;;10.50;35.80;;;;;;5048526;28;20028;-68
2021/04/15 13:15:24;;;;;;;2.22;0.70;;;10.60;35.40;;;;;;5035880;28;20052;-67
2021/04/15 13:18:00;;;;;;;1.80;0.50;;;10.90;36.70;;;;;;5030585;28;20139;-68
2021/04/15 13:20:26;;;;;;;2.25;0.80;;;11.10;36.30;;;;;;5049582;28;20025;-69
2021/04/15 13:22:58;;;;;;;2.67;0.75;;;11.00;37.90;;;;;;5036462;28;20036;-69
2021/04/15 13:25:26;;;;;;;1.85;0.73;;;11.10;37.50;;;;;;5049836;28;20138;-68
2021/04/15 13:28:05;;;;;;;1.45;1.10;;;11.10;38.10;;;;;;5048805;28;20053;-68
2021/04/15 13:30:53;;;;;;;2.22;0.70;;;11.10;39.00;;;;;;5049100;28;20029;-69
2021/04/15 13:33:22;;;;;;;1.30;0.77;;;11.00;39.50;;;;;;5047910;28;20410;-69
2021/04/15 13:36:01;;;;;;;2.47;0.77;;;11.00;40.70;;;;;;5045523;28;20029;-69
2021/04/15 13:38:41;;;;;;;1.42;0.70;;;10.90;41.90;;;;;;5037473;28;20060;-69
2021/04/15 13:41:11;;;;;;;3.17;0.93;;;10.80;42.60;;;;;;5032699;28;20024;-68
2021/04/15 13:43:55;;;;;;;4.20;1.05;;;10.90;41.80;;;;;;5032485;28;20440;-69
2021/04/15 13:46:28;;;;;;;1.90;0.90;;;10.90;42.40;;;;;;5050669;28;20150;-67
2021/04/15 13:48:57;;;;;;;1.90;0.82;;;10.90;43.10;;;;;;5048891;28;20029;-68
2021/04/15 13:51:24;;;;;;;2.67;0.77;;;11.00;42.60;;;;;;5022075;28;20486;-68
2021/04/15 13:54:20;;;;;;;2.00;0.80;;;11.00;41.50;;;;;;5017804;28;20040;-68
2021/04/15 13:56:57;;;;;;;3.13;1.15;;;11.00;41.10;;;;;;5046442;28;20666;-68